sensor_id;sensor_type;location;lat;lon;timestamp;temperature;humidity
62581;DHT22;48640;48.770;9.148;2022-11-23T00:01:54;5.90;99.90
62581;DHT22;48640;48.770;9.148;2022-11-23T00:04:21;5.80;99.90
62581;DHT22;48640;48.770;9.148;2022-11-23T00:06:49;5.80;99.90
62581;DHT22;48640;48.770;9.148;2022-11-23T00:09:16;5.90;99.90
62581;DHT22;48640;48.770;9.148;2022-11-23T00:11:43;5.80;99.90
62581;DHT22;48640;48.770;9.148;2022-11-23T00:14:11;5.80;99.90
62581;DHT22;48640;48.770;9.148;2022-11-23T00:16:38;5.80;99.90
62581;DHT22;48640;48.770;9.148;2022-11-23T00:19:05;5.70;99.90
62581;DHT22;48640;48.770;9.148;2022-11-23T00:21:32;5.70;99.90
62581;DHT22;48640;48.770;9.148;2022-11-23T00:23:59;5.70;99.90
62581;DHT22;48640;48.770;9.148;2022-11-23T00:26:25;5.70;99.90
62581;DHT22;48640;48.770;9.148;2022-11-23T00:28:53;5.70;99.90
62581;DHT22;48640;48.770;9.148;2022-11-23T00:31:21;5.70;99.90
62581;DHT22;48640;48.770;9.148;2022-11-23T00:33:50;5.60;99.90
62581;DHT22;48640;48.770;9.148;2022-11-23T00:36:18;5.60;99.90
62581;DHT22;48640;48.770;9.148;2022-11-23T00:38:46;5.60;99.90
62581;DHT22;48640;48.770;9.148;2022-11-23T00:41:15;5.60;99.90
62581;DHT22;48640;48.770;9.148;2022-11-23T00:43:42;5.60;99.90
62581;DHT22;48640;48.770;9.148;2022-11-23T00:46:12;5.70;99.90
62581;DHT22;48640;48.770;9.148;2022-11-23T00:48:41;5.70;99.90
62581;DHT22;48640;48.770;9.148;2022-11-23T00:51:10;5.80;99.90
62581;DHT22;48640;48.770;9.148;2022-11-23T00:53:38;5.80;99.90
62581;DHT22;48640;48.770;9.148;2022-11-23T00:56:05;5.70;99.90
62581;DHT22;48640;48.770;9.148;2022-11-23T00:58:32;5.80;99.90
62581;DHT22;48640;48.770;9.148;2022-11-23T01:01:01;5.80;99.90
62581;DHT22;48640;48.770;9.148;2022-11-23T01:03:28;5.80;99.90
62581;DHT22;48640;48.770;9.148;2022-11-23T01:06:01;5.80;99.90
62581;DHT22;48640;48.770;9.148;2022-11-23T01:08:28;5.90;99.90
62581;DHT22;48640;48.770;9.148;2022-11-23T01:10:58;5.90;99.90
62581;DHT22;48640;48.770;9.148;2022-11-23T01:13:26;5.90;99.90
62581;DHT22;48640;48.770;9.148;2022-11-23T01:15:53;5.90;99.90
62581;DHT22;48640;48.770;9.148;2022-11-23T01:18:20;5.90;99.90
62581;DHT22;48640;48.770;9.148;2022-11-23T01:20:47;6.00;99.90
62581;DHT22;48640;48.770;9.148;2022-11-23T01:23:16;5.90;99.90
62581;DHT22;48640;48.770;9.148;2022-11-23T01:25:42;5.90;99.90
62581;DHT22;48640;48.770;9.148;2022-11-23T01:28:09;6.00;99.90
62581;DHT22;48640;48.770;9.148;2022-11-23T01:30:36;6.00;99.90
62581;DHT22;48640;48.770;9.148;2022-11-23T01:33:03;6.00;99.90
62581;DHT22;48640;48.770;9.148;2022-11-23T01:35:30;6.00;99.90
62581;DHT22;48640;48.770;9.148;2022-11-23T01:38:00;6.00;99.90
62581;DHT22;48640;48.770;9.148;2022-11-23T01:40:28;6.00;99.90
62581;DHT22;48640;48.770;9.148;2022-11-23T01:42:56;6.00;99.90
62581;DHT22;48640;48.770;9.148;2022-11-23T01:45:35;6.00;99.90
62581;DHT22;48640;48.770;9.148;2022-11-23T01:48:04;6.00;99.90
62581;DHT22;48640;48.770;9.148;2022-11-23T01:50:32;6.00;99.90
62581;DHT22;48640;48.770;9.148;2022-11-23T01:52:59;6.00;99.90
62581;DHT22;48640;48.770;9.148;2022-11-23T01:55:27;6.00;99.90
62581;DHT22;48640;48.770;9.148;2022-11-23T01:57:54;5.90;99.90
62581;DHT22;48640;48.770;9.148;2022-11-23T02:00:21;5.90;99.90
62581;DHT22;48640;48.770;9.148;2022-11-23T02:02:52;6.00;99.90
62581;DHT22;48640;48.770;9.148;2022-11-23T02:05:22;6.00;99.90
62581;DHT22;48640;48.770;9.148;2022-11-23T02:10:26;6.00;99.90
62581;DHT22;48640;48.770;9.148;2022-11-23T02:12:55;6.00;99.90
62581;DHT22;48640;48.770;9.148;2022-11-23T02:15:21;6.00;99.90
62581;DHT22;48640;48.770;9.148;2022-11-23T02:17:48;5.90;99.90
62581;DHT22;48640;48.770;9.148;2022-11-23T02:20:17;5.90;99.90
62581;DHT22;48640;48.770;9.148;2022-11-23T02:22:52;5.90;99.90
62581;DHT22;48640;48.770;9.148;2022-11-23T02:25:27;6.00;99.90
62581;DHT22;48640;48.770;9.148;2022-11-23T02:27:58;6.00;99.90
62581;DHT22;48640;48.770;9.148;2022-11-23T02:30:26;6.00;99.90
62581;DHT22;48640;48.770;9.148;2022-11-23T02:32:54;6.00;99.90
62581;DHT22;48640;48.770;9.148;2022-11-23T02:35:21;6.00;99.90
62581;DHT22;48640;48.770;9.148;2022-11-23T02:37:49;6.00;99.90
62581;DHT22;48640;48.770;9.148;2022-11-23T02:40:25;6.00;99.90
62581;DHT22;48640;48.770;9.148;2022-11-23T02:42:52;5.90;99.90
62581;DHT22;48640;48.770;9.148;2022-11-23T02:45:30;5.90;99.90
62581;DHT22;48640;48.770;9.148;2022-11-23T02:47:59;6.00;99.90
62581;DHT22;48640;48.770;9.148;2022-11-23T02:50:26;6.00;99.90
62581;DHT22;48640;48.770;9.148;2022-11-23T02:52:52;6.10;99.90
62581;DHT22;48640;48.770;9.148;2022-11-23T02:55:19;6.00;99.90
62581;DHT22;48640;48.770;9.148;2022-11-23T02:57:46;6.00;99.90
62581;DHT22;48640;48.770;9.148;2022-11-23T03:02:42;5.90;99.90
62581;DHT22;48640;48.770;9.148;2022-11-23T03:05:09;5.90;99.90
62581;DHT22;48640;48.770;9.148;2022-11-23T03:07:36;5.80;99.90
62581;DHT22;48640;48.770;9.148;2022-11-23T03:10:03;5.90;99.90
62581;DHT22;48640;48.770;9.148;2022-11-23T03:12:30;5.80;99.90
62581;DHT22;48640;48.770;9.148;2022-11-23T03:14:57;5.80;99.90
62581;DHT22;48640;48.770;9.148;2022-11-23T03:17:24;5.90;99.90
62581;DHT22;48640;48.770;9.148;2022-11-23T03:19:53;5.80;99.90
62581;DHT22;48640;48.770;9.148;2022-11-23T03:22:20;5.80;99.90
62581;DHT22;48640;48.770;9.148;2022-11-23T03:24:46;5.90;99.90
62581;DHT22;48640;48.770;9.148;2022-11-23T03:27:13;6.00;99.90
62581;DHT22;48640;48.770;9.148;2022-11-23T03:29:40;6.00;99.80
62581;DHT22;48640;48.770;9.148;2022-11-23T03:32:07;5.90;99.80
62581;DHT22;48640;48.770;9.148;2022-11-23T03:34:34;5.90;99.90
62581;DHT22;48640;48.770;9.148;2022-11-23T03:37:02;6.00;99.80
62581;DHT22;48640;48.770;9.148;2022-11-23T03:39:29;6.00;99.90
62581;DHT22;48640;48.770;9.148;2022-11-23T03:41:55;6.00;99.70
62581;DHT22;48640;48.770;9.148;2022-11-23T03:44:22;6.00;99.60
62581;DHT22;48640;48.770;9.148;2022-11-23T03:46:49;6.10;99.30
62581;DHT22;48640;48.770;9.148;2022-11-23T03:49:16;6.20;99.30
62581;DHT22;48640;48.770;9.148;2022-11-23T03:51:43;6.20;99.10
62581;DHT22;48640;48.770;9.148;2022-11-23T03:54:11;6.20;98.80
62581;DHT22;48640;48.770;9.148;2022-11-23T03:56:37;6.20;98.90
62581;DHT22;48640;48.770;9.148;2022-11-23T03:59:04;6.20;98.80
62581;DHT22;48640;48.770;9.148;2022-11-23T04:01:31;6.20;98.80
62581;DHT22;48640;48.770;9.148;2022-11-23T04:03:58;6.20;98.70
62581;DHT22;48640;48.770;9.148;2022-11-23T04:06:24;6.10;98.60
62581;DHT22;48640;48.770;9.148;2022-11-23T04:08:51;6.10;98.20
62581;DHT22;48640;48.770;9.148;2022-11-23T04:11:19;6.10;98.20
62581;DHT22;48640;48.770;9.148;2022-11-23T04:13:46;6.10;98.30
62581;DHT22;48640;48.770;9.148;2022-11-23T04:16:13;6.10;98.30
62581;DHT22;48640;48.770;9.148;2022-11-23T04:18:40;6.00;98.40
62581;DHT22;48640;48.770;9.148;2022-11-23T04:21:07;6.00;98.40
62581;DHT22;48640;48.770;9.148;2022-11-23T04:23:34;5.90;98.40
62581;DHT22;48640;48.770;9.148;2022-11-23T04:26:00;5.90;98.30
62581;DHT22;48640;48.770;9.148;2022-11-23T04:28:28;5.80;98.60
62581;DHT22;48640;48.770;9.148;2022-11-23T04:30:55;5.70;98.70
62581;DHT22;48640;48.770;9.148;2022-11-23T04:33:23;5.70;98.90
62581;DHT22;48640;48.770;9.148;2022-11-23T04:35:50;5.70;98.80
62581;DHT22;48640;48.770;9.148;2022-11-23T04:38:16;5.70;99.30
62581;DHT22;48640;48.770;9.148;2022-11-23T04:40:45;5.70;98.90
62581;DHT22;48640;48.770;9.148;2022-11-23T04:43:12;5.60;98.90
62581;DHT22;48640;48.770;9.148;2022-11-23T04:45:40;5.60;99.00
62581;DHT22;48640;48.770;9.148;2022-11-23T04:48:07;5.60;99.10
62581;DHT22;48640;48.770;9.148;2022-11-23T04:50:34;5.50;99.10
62581;DHT22;48640;48.770;9.148;2022-11-23T04:53:02;5.50;99.20
62581;DHT22;48640;48.770;9.148;2022-11-23T04:55:29;5.50;99.30
62581;DHT22;48640;48.770;9.148;2022-11-23T04:57:56;5.50;99.40
62581;DHT22;48640;48.770;9.148;2022-11-23T05:00:23;5.50;99.40
62581;DHT22;48640;48.770;9.148;2022-11-23T05:02:51;5.50;99.50
62581;DHT22;48640;48.770;9.148;2022-11-23T05:05:18;5.60;99.60
62581;DHT22;48640;48.770;9.148;2022-11-23T05:07:45;5.70;99.50
62581;DHT22;48640;48.770;9.148;2022-11-23T05:10:11;5.80;99.40
62581;DHT22;48640;48.770;9.148;2022-11-23T05:12:38;5.90;99.20
62581;DHT22;48640;48.770;9.148;2022-11-23T05:15:06;6.00;99.00
62581;DHT22;48640;48.770;9.148;2022-11-23T05:17:32;6.00;98.90
62581;DHT22;48640;48.770;9.148;2022-11-23T05:20:01;6.00;98.80
62581;DHT22;48640;48.770;9.148;2022-11-23T05:22:28;6.00;98.70
62581;DHT22;48640;48.770;9.148;2022-11-23T05:24:55;6.00;98.70
62581;DHT22;48640;48.770;9.148;2022-11-23T05:27:21;6.00;98.90
62581;DHT22;48640;48.770;9.148;2022-11-23T05:29:48;6.00;98.90
62581;DHT22;48640;48.770;9.148;2022-11-23T05:32:15;5.90;98.90
62581;DHT22;48640;48.770;9.148;2022-11-23T05:34:42;6.00;98.80
62581;DHT22;48640;48.770;9.148;2022-11-23T05:37:10;6.10;98.70
62581;DHT22;48640;48.770;9.148;2022-11-23T05:39:36;6.10;98.60
62581;DHT22;48640;48.770;9.148;2022-11-23T05:42:04;6.20;98.50
62581;DHT22;48640;48.770;9.148;2022-11-23T05:44:30;6.20;98.40
62581;DHT22;48640;48.770;9.148;2022-11-23T05:46:57;6.20;98.20
62581;DHT22;48640;48.770;9.148;2022-11-23T05:49:24;6.30;98.10
62581;DHT22;48640;48.770;9.148;2022-11-23T05:51:51;6.30;97.80
62581;DHT22;48640;48.770;9.148;2022-11-23T05:54:19;6.40;97.70
62581;DHT22;48640;48.770;9.148;2022-11-23T05:56:45;6.40;97.60
62581;DHT22;48640;48.770;9.148;2022-11-23T05:59:12;6.40;97.60
62581;DHT22;48640;48.770;9.148;2022-11-23T06:01:39;6.40;97.60
62581;DHT22;48640;48.770;9.148;2022-11-23T06:04:06;6.40;97.50
62581;DHT22;48640;48.770;9.148;2022-11-23T06:06:33;6.30;97.50
62581;DHT22;48640;48.770;9.148;2022-11-23T06:08:59;6.30;97.60
62581;DHT22;48640;48.770;9.148;2022-11-23T06:11:27;6.30;97.60
62581;DHT22;48640;48.770;9.148;2022-11-23T06:13:55;6.20;97.60
62581;DHT22;48640;48.770;9.148;2022-11-23T06:16:22;6.20;97.70
62581;DHT22;48640;48.770;9.148;2022-11-23T06:18:49;6.30;97.70
62581;DHT22;48640;48.770;9.148;2022-11-23T06:21:16;6.30;97.60
62581;DHT22;48640;48.770;9.148;2022-11-23T06:23:43;6.20;97.60
62581;DHT22;48640;48.770;9.148;2022-11-23T06:26:09;6.20;97.70
62581;DHT22;48640;48.770;9.148;2022-11-23T06:28:38;6.10;97.70
62581;DHT22;48640;48.770;9.148;2022-11-23T06:31:06;6.10;97.90
62581;DHT22;48640;48.770;9.148;2022-11-23T06:33:33;6.00;98.00
62581;DHT22;48640;48.770;9.148;2022-11-23T06:36:01;5.90;98.10
62581;DHT22;48640;48.770;9.148;2022-11-23T06:38:28;5.90;98.40
62581;DHT22;48640;48.770;9.148;2022-11-23T06:40:56;5.90;98.50
62581;DHT22;48640;48.770;9.148;2022-11-23T06:43:23;5.90;98.50
62581;DHT22;48640;48.770;9.148;2022-11-23T06:45:51;5.80;98.60
62581;DHT22;48640;48.770;9.148;2022-11-23T06:48:18;5.80;98.60
62581;DHT22;48640;48.770;9.148;2022-11-23T06:50:45;5.80;98.80
62581;DHT22;48640;48.770;9.148;2022-11-23T06:53:12;5.80;98.60
62581;DHT22;48640;48.770;9.148;2022-11-23T06:55:39;5.90;98.50
62581;DHT22;48640;48.770;9.148;2022-11-23T06:58:05;5.80;98.60
62581;DHT22;48640;48.770;9.148;2022-11-23T07:00:32;5.90;98.70
62581;DHT22;48640;48.770;9.148;2022-11-23T07:03:01;5.90;98.60
62581;DHT22;48640;48.770;9.148;2022-11-23T07:05:27;5.80;98.60
62581;DHT22;48640;48.770;9.148;2022-11-23T07:07:54;5.90;98.50
62581;DHT22;48640;48.770;9.148;2022-11-23T07:10:22;5.90;98.50
62581;DHT22;48640;48.770;9.148;2022-11-23T07:12:50;5.90;98.30
62581;DHT22;48640;48.770;9.148;2022-11-23T07:15:17;6.00;98.20
62581;DHT22;48640;48.770;9.148;2022-11-23T07:17:43;5.90;98.20
62581;DHT22;48640;48.770;9.148;2022-11-23T07:20:12;6.00;98.30
62581;DHT22;48640;48.770;9.148;2022-11-23T07:22:39;6.00;98.30
62581;DHT22;48640;48.770;9.148;2022-11-23T07:25:06;5.90;98.30
62581;DHT22;48640;48.770;9.148;2022-11-23T07:27:33;5.90;98.20
62581;DHT22;48640;48.770;9.148;2022-11-23T07:30:00;5.90;98.30
62581;DHT22;48640;48.770;9.148;2022-11-23T07:32:27;5.90;98.40
62581;DHT22;48640;48.770;9.148;2022-11-23T07:34:54;6.00;98.20
62581;DHT22;48640;48.770;9.148;2022-11-23T07:37:22;5.90;98.20
62581;DHT22;48640;48.770;9.148;2022-11-23T07:39:48;5.90;98.30
62581;DHT22;48640;48.770;9.148;2022-11-23T07:42:17;6.00;98.30
62581;DHT22;48640;48.770;9.148;2022-11-23T07:44:44;6.00;98.20
62581;DHT22;48640;48.770;9.148;2022-11-23T07:47:11;6.10;98.10
62581;DHT22;48640;48.770;9.148;2022-11-23T07:49:37;6.10;98.00
62581;DHT22;48640;48.770;9.148;2022-11-23T07:52:04;6.10;98.00
62581;DHT22;48640;48.770;9.148;2022-11-23T07:54:32;6.20;98.00
62581;DHT22;48640;48.770;9.148;2022-11-23T07:56:59;6.20;98.00
62581;DHT22;48640;48.770;9.148;2022-11-23T07:59:26;6.30;97.80
62581;DHT22;48640;48.770;9.148;2022-11-23T08:01:53;6.30;97.70
62581;DHT22;48640;48.770;9.148;2022-11-23T08:04:20;6.40;97.60
62581;DHT22;48640;48.770;9.148;2022-11-23T08:06:47;6.40;97.50
62581;DHT22;48640;48.770;9.148;2022-11-23T08:09:14;6.40;97.40
62581;DHT22;48640;48.770;9.148;2022-11-23T08:11:42;6.50;97.30
62581;DHT22;48640;48.770;9.148;2022-11-23T08:14:08;6.60;97.20
62581;DHT22;48640;48.770;9.148;2022-11-23T08:16:35;6.70;97.10
62581;DHT22;48640;48.770;9.148;2022-11-23T08:19:02;6.60;97.00
62581;DHT22;48640;48.770;9.148;2022-11-23T08:21:29;6.60;97.00
62581;DHT22;48640;48.770;9.148;2022-11-23T08:23:56;6.70;97.10
62581;DHT22;48640;48.770;9.148;2022-11-23T08:26:22;6.70;97.00
62581;DHT22;48640;48.770;9.148;2022-11-23T08:28:50;6.80;96.80
62581;DHT22;48640;48.770;9.148;2022-11-23T08:31:17;6.70;96.80
62581;DHT22;48640;48.770;9.148;2022-11-23T08:33:44;6.80;96.70
62581;DHT22;48640;48.770;9.148;2022-11-23T08:36:11;6.80;96.60
62581;DHT22;48640;48.770;9.148;2022-11-23T08:38:38;6.80;96.60
62581;DHT22;48640;48.770;9.148;2022-11-23T08:41:05;6.90;96.60
62581;DHT22;48640;48.770;9.148;2022-11-23T08:43:31;6.90;96.30
62581;DHT22;48640;48.770;9.148;2022-11-23T08:46:01;6.90;96.20
62581;DHT22;48640;48.770;9.148;2022-11-23T08:48:27;7.00;96.20
62581;DHT22;48640;48.770;9.148;2022-11-23T08:50:58;6.90;96.10
62581;DHT22;48640;48.770;9.148;2022-11-23T08:53:25;7.00;96.20
62581;DHT22;48640;48.770;9.148;2022-11-23T08:55:52;7.00;95.90
62581;DHT22;48640;48.770;9.148;2022-11-23T08:58:18;7.10;95.90
62581;DHT22;48640;48.770;9.148;2022-11-23T09:00:45;7.10;95.70
62581;DHT22;48640;48.770;9.148;2022-11-23T09:03:13;7.10;95.50
62581;DHT22;48640;48.770;9.148;2022-11-23T09:05:40;7.20;95.40
62581;DHT22;48640;48.770;9.148;2022-11-23T09:08:07;7.20;95.30
62581;DHT22;48640;48.770;9.148;2022-11-23T09:10:34;7.10;95.40
62581;DHT22;48640;48.770;9.148;2022-11-23T09:13:01;7.10;95.50
62581;DHT22;48640;48.770;9.148;2022-11-23T09:15:28;7.10;95.30
62581;DHT22;48640;48.770;9.148;2022-11-23T09:17:55;7.10;95.20
62581;DHT22;48640;48.770;9.148;2022-11-23T09:20:24;7.20;95.10
62581;DHT22;48640;48.770;9.148;2022-11-23T09:22:51;7.30;95.00
62581;DHT22;48640;48.770;9.148;2022-11-23T09:25:18;7.30;94.80
62581;DHT22;48640;48.770;9.148;2022-11-23T09:27:45;7.40;94.70
62581;DHT22;48640;48.770;9.148;2022-11-23T09:30:13;7.50;94.40
62581;DHT22;48640;48.770;9.148;2022-11-23T09:32:40;7.40;94.10
62581;DHT22;48640;48.770;9.148;2022-11-23T09:35:07;7.40;94.10
62581;DHT22;48640;48.770;9.148;2022-11-23T09:37:36;7.40;94.00
62581;DHT22;48640;48.770;9.148;2022-11-23T09:40:03;7.50;93.70
62581;DHT22;48640;48.770;9.148;2022-11-23T09:42:49;7.50;93.70
62581;DHT22;48640;48.770;9.148;2022-11-23T09:45:21;7.60;93.50
62581;DHT22;48640;48.770;9.148;2022-11-23T09:48:17;7.60;93.40
62581;DHT22;48640;48.770;9.148;2022-11-23T09:50:52;7.70;93.20
62581;DHT22;48640;48.770;9.148;2022-11-23T09:53:27;7.60;93.20
62581;DHT22;48640;48.770;9.148;2022-11-23T09:55:56;7.70;92.70
62581;DHT22;48640;48.770;9.148;2022-11-23T09:58:27;7.80;92.60
62581;DHT22;48640;48.770;9.148;2022-11-23T10:01:00;7.80;92.50
62581;DHT22;48640;48.770;9.148;2022-11-23T10:03:32;7.70;92.70
62581;DHT22;48640;48.770;9.148;2022-11-23T10:06:03;7.90;92.40
62581;DHT22;48640;48.770;9.148;2022-11-23T10:08:42;7.90;92.10
62581;DHT22;48640;48.770;9.148;2022-11-23T10:11:42;8.00;92.00
62581;DHT22;48640;48.770;9.148;2022-11-23T10:14:23;8.00;91.80
62581;DHT22;48640;48.770;9.148;2022-11-23T10:16:58;8.10;91.80
62581;DHT22;48640;48.770;9.148;2022-11-23T10:19:36;8.10;91.60
62581;DHT22;48640;48.770;9.148;2022-11-23T10:22:12;8.10;91.60
62581;DHT22;48640;48.770;9.148;2022-11-23T10:24:45;8.20;91.20
62581;DHT22;48640;48.770;9.148;2022-11-23T10:27:16;8.20;91.40
62581;DHT22;48640;48.770;9.148;2022-11-23T10:29:43;8.20;91.50
62581;DHT22;48640;48.770;9.148;2022-11-23T10:32:19;8.20;91.30
62581;DHT22;48640;48.770;9.148;2022-11-23T10:34:53;8.20;91.30
62581;DHT22;48640;48.770;9.148;2022-11-23T10:37:22;8.30;91.20
62581;DHT22;48640;48.770;9.148;2022-11-23T10:39:50;8.30;91.20
62581;DHT22;48640;48.770;9.148;2022-11-23T10:42:22;8.40;91.10
62581;DHT22;48640;48.770;9.148;2022-11-23T10:44:50;8.50;91.10
62581;DHT22;48640;48.770;9.148;2022-11-23T10:47:36;8.50;90.80
62581;DHT22;48640;48.770;9.148;2022-11-23T10:50:19;8.40;91.10
62581;DHT22;48640;48.770;9.148;2022-11-23T10:52:49;8.40;90.70
62581;DHT22;48640;48.770;9.148;2022-11-23T10:55:23;8.40;90.80
62581;DHT22;48640;48.770;9.148;2022-11-23T10:57:51;8.40;90.40
62581;DHT22;48640;48.770;9.148;2022-11-23T11:00:19;8.40;90.40
62581;DHT22;48640;48.770;9.148;2022-11-23T11:02:48;8.40;90.50
62581;DHT22;48640;48.770;9.148;2022-11-23T11:05:26;8.40;90.10
62581;DHT22;48640;48.770;9.148;2022-11-23T11:07:54;8.40;89.50
62581;DHT22;48640;48.770;9.148;2022-11-23T11:10:35;8.40;88.60
62581;DHT22;48640;48.770;9.148;2022-11-23T11:13:08;8.50;89.00
62581;DHT22;48640;48.770;9.148;2022-11-23T11:15:51;8.40;89.40
62581;DHT22;48640;48.770;9.148;2022-11-23T11:18:18;8.40;90.10
62581;DHT22;48640;48.770;9.148;2022-11-23T11:20:45;8.50;89.90
62581;DHT22;48640;48.770;9.148;2022-11-23T11:23:16;8.60;89.80
62581;DHT22;48640;48.770;9.148;2022-11-23T11:25:46;8.60;90.00
62581;DHT22;48640;48.770;9.148;2022-11-23T11:28:23;8.60;90.30
62581;DHT22;48640;48.770;9.148;2022-11-23T11:30:58;8.60;90.00
62581;DHT22;48640;48.770;9.148;2022-11-23T11:33:34;8.60;90.00
62581;DHT22;48640;48.770;9.148;2022-11-23T11:36:04;8.60;88.90
62581;DHT22;48640;48.770;9.148;2022-11-23T11:38:34;8.60;89.70
62581;DHT22;48640;48.770;9.148;2022-11-23T11:41:04;8.60;89.70
62581;DHT22;48640;48.770;9.148;2022-11-23T11:43:34;8.70;88.80
62581;DHT22;48640;48.770;9.148;2022-11-23T11:46:05;8.70;88.30
62581;DHT22;48640;48.770;9.148;2022-11-23T11:48:37;8.70;87.60
62581;DHT22;48640;48.770;9.148;2022-11-23T11:51:10;8.80;86.70
62581;DHT22;48640;48.770;9.148;2022-11-23T11:53:43;8.80;86.80
62581;DHT22;48640;48.770;9.148;2022-11-23T11:56:21;8.90;86.40
62581;DHT22;48640;48.770;9.148;2022-11-23T11:58:53;8.80;86.50
62581;DHT22;48640;48.770;9.148;2022-11-23T12:01:30;8.80;85.40
62581;DHT22;48640;48.770;9.148;2022-11-23T12:04:03;8.80;85.20
62581;DHT22;48640;48.770;9.148;2022-11-23T12:06:34;8.80;85.20
62581;DHT22;48640;48.770;9.148;2022-11-23T12:09:08;8.90;85.20
62581;DHT22;48640;48.770;9.148;2022-11-23T12:11:41;9.00;84.30
62581;DHT22;48640;48.770;9.148;2022-11-23T12:14:11;8.90;83.70
62581;DHT22;48640;48.770;9.148;2022-11-23T12:16:46;8.90;84.10
62581;DHT22;48640;48.770;9.148;2022-11-23T12:19:19;9.00;84.00
62581;DHT22;48640;48.770;9.148;2022-11-23T12:22:05;9.00;83.40
62581;DHT22;48640;48.770;9.148;2022-11-23T12:24:56;9.00;83.90
62581;DHT22;48640;48.770;9.148;2022-11-23T12:27:32;9.00;83.50
62581;DHT22;48640;48.770;9.148;2022-11-23T12:30:21;9.00;82.20
62581;DHT22;48640;48.770;9.148;2022-11-23T12:36:08;9.00;82.50
62581;DHT22;48640;48.770;9.148;2022-11-23T12:38:44;9.00;81.80
62581;DHT22;48640;48.770;9.148;2022-11-23T12:41:22;8.90;81.40
62581;DHT22;48640;48.770;9.148;2022-11-23T12:44:07;9.00;81.90
62581;DHT22;48640;48.770;9.148;2022-11-23T12:46:43;9.00;82.30
62581;DHT22;48640;48.770;9.148;2022-11-23T12:49:20;9.00;81.70
62581;DHT22;48640;48.770;9.148;2022-11-23T12:51:57;9.00;82.20
62581;DHT22;48640;48.770;9.148;2022-11-23T12:54:39;9.10;81.50
62581;DHT22;48640;48.770;9.148;2022-11-23T12:57:13;9.20;80.70
62581;DHT22;48640;48.770;9.148;2022-11-23T12:59:45;9.20;80.50
62581;DHT22;48640;48.770;9.148;2022-11-23T13:05:39;9.20;80.10
62581;DHT22;48640;48.770;9.148;2022-11-23T13:11:15;9.20;78.70
62581;DHT22;48640;48.770;9.148;2022-11-23T13:13:59;9.20;78.80
62581;DHT22;48640;48.770;9.148;2022-11-23T13:16:42;9.20;78.60
62581;DHT22;48640;48.770;9.148;2022-11-23T13:22:05;9.30;77.60
62581;DHT22;48640;48.770;9.148;2022-11-23T13:24:32;9.40;76.90
62581;DHT22;48640;48.770;9.148;2022-11-23T13:27:40;9.40;76.40
62581;DHT22;48640;48.770;9.148;2022-11-23T13:30:21;9.40;77.10
62581;DHT22;48640;48.770;9.148;2022-11-23T13:32:55;9.30;77.70
62581;DHT22;48640;48.770;9.148;2022-11-23T13:38:43;9.30;78.90
62581;DHT22;48640;48.770;9.148;2022-11-23T13:44:21;9.30;79.60
62581;DHT22;48640;48.770;9.148;2022-11-23T13:47:04;9.20;80.10
62581;DHT22;48640;48.770;9.148;2022-11-23T13:49:40;9.20;80.20
62581;DHT22;48640;48.770;9.148;2022-11-23T13:52:30;9.20;80.10
62581;DHT22;48640;48.770;9.148;2022-11-23T13:55:14;9.30;80.10
62581;DHT22;48640;48.770;9.148;2022-11-23T13:57:45;9.30;80.60
62581;DHT22;48640;48.770;9.148;2022-11-23T14:00:45;9.20;80.70
62581;DHT22;48640;48.770;9.148;2022-11-23T14:03:47;9.20;81.20
62581;DHT22;48640;48.770;9.148;2022-11-23T14:06:32;9.10;81.90
62581;DHT22;48640;48.770;9.148;2022-11-23T14:09:05;9.10;82.00
62581;DHT22;48640;48.770;9.148;2022-11-23T14:11:41;9.10;81.50
62581;DHT22;48640;48.770;9.148;2022-11-23T14:14:16;9.10;82.10
62581;DHT22;48640;48.770;9.148;2022-11-23T14:17:11;9.10;82.30
62581;DHT22;48640;48.770;9.148;2022-11-23T14:19:53;9.10;82.50
62581;DHT22;48640;48.770;9.148;2022-11-23T14:22:38;9.10;82.90
62581;DHT22;48640;48.770;9.148;2022-11-23T14:25:26;9.20;83.40
62581;DHT22;48640;48.770;9.148;2022-11-23T14:28:03;8.90;84.00
62581;DHT22;48640;48.770;9.148;2022-11-23T14:30:40;9.00;85.00
62581;DHT22;48640;48.770;9.148;2022-11-23T14:33:18;8.90;85.30
62581;DHT22;48640;48.770;9.148;2022-11-23T14:35:56;8.90;86.00
62581;DHT22;48640;48.770;9.148;2022-11-23T14:41:18;8.90;85.20
62581;DHT22;48640;48.770;9.148;2022-11-23T14:43:46;8.90;83.80
62581;DHT22;48640;48.770;9.148;2022-11-23T14:46:15;9.00;83.40
62581;DHT22;48640;48.770;9.148;2022-11-23T14:48:43;9.00;83.30
62581;DHT22;48640;48.770;9.148;2022-11-23T14:51:12;9.10;82.20
62581;DHT22;48640;48.770;9.148;2022-11-23T14:53:42;9.00;81.80
62581;DHT22;48640;48.770;9.148;2022-11-23T14:56:21;9.00;83.00
62581;DHT22;48640;48.770;9.148;2022-11-23T14:58:49;9.00;82.60
62581;DHT22;48640;48.770;9.148;2022-11-23T15:01:20;8.90;82.30
62581;DHT22;48640;48.770;9.148;2022-11-23T15:03:55;8.90;82.60
62581;DHT22;48640;48.770;9.148;2022-11-23T15:06:25;8.80;83.10
62581;DHT22;48640;48.770;9.148;2022-11-23T15:09:00;8.90;83.70
62581;DHT22;48640;48.770;9.148;2022-11-23T15:11:31;9.00;83.60
62581;DHT22;48640;48.770;9.148;2022-11-23T15:13:59;8.90;83.80
62581;DHT22;48640;48.770;9.148;2022-11-23T15:16:37;8.80;84.00
62581;DHT22;48640;48.770;9.148;2022-11-23T15:19:16;8.70;84.70
62581;DHT22;48640;48.770;9.148;2022-11-23T15:21:43;8.70;85.20
62581;DHT22;48640;48.770;9.148;2022-11-23T15:24:20;8.70;85.80
62581;DHT22;48640;48.770;9.148;2022-11-23T15:26:47;8.60;86.50
62581;DHT22;48640;48.770;9.148;2022-11-23T15:29:27;8.60;85.60
62581;DHT22;48640;48.770;9.148;2022-11-23T15:31:54;8.60;85.90
62581;DHT22;48640;48.770;9.148;2022-11-23T15:34:21;8.60;86.30
62581;DHT22;48640;48.770;9.148;2022-11-23T15:36:48;8.60;85.80
62581;DHT22;48640;48.770;9.148;2022-11-23T15:39:18;8.50;85.80
62581;DHT22;48640;48.770;9.148;2022-11-23T15:41:46;8.50;87.40
62581;DHT22;48640;48.770;9.148;2022-11-23T15:44:21;8.50;87.00
62581;DHT22;48640;48.770;9.148;2022-11-23T15:46:50;8.50;86.50
62581;DHT22;48640;48.770;9.148;2022-11-23T15:49:18;8.50;86.50
62581;DHT22;48640;48.770;9.148;2022-11-23T15:51:46;8.40;87.20
62581;DHT22;48640;48.770;9.148;2022-11-23T15:54:16;8.40;87.10
62581;DHT22;48640;48.770;9.148;2022-11-23T15:56:46;8.50;87.50
62581;DHT22;48640;48.770;9.148;2022-11-23T15:59:27;8.60;87.10
62581;DHT22;48640;48.770;9.148;2022-11-23T16:01:56;8.70;88.30
62581;DHT22;48640;48.770;9.148;2022-11-23T16:04:26;8.70;87.50
62581;DHT22;48640;48.770;9.148;2022-11-23T16:06:53;8.70;86.60
62581;DHT22;48640;48.770;9.148;2022-11-23T16:09:35;8.80;87.10
62581;DHT22;48640;48.770;9.148;2022-11-23T16:12:19;8.90;86.50
62581;DHT22;48640;48.770;9.148;2022-11-23T16:14:46;9.00;86.40
62581;DHT22;48640;48.770;9.148;2022-11-23T16:17:16;9.10;86.00
62581;DHT22;48640;48.770;9.148;2022-11-23T16:19:46;9.10;85.70
62581;DHT22;48640;48.770;9.148;2022-11-23T16:22:23;9.10;85.60
62581;DHT22;48640;48.770;9.148;2022-11-23T16:24:55;9.10;85.40
62581;DHT22;48640;48.770;9.148;2022-11-23T16:27:26;9.10;84.70
62581;DHT22;48640;48.770;9.148;2022-11-23T16:29:53;9.20;84.60
62581;DHT22;48640;48.770;9.148;2022-11-23T16:32:22;9.20;84.50